sensor_id;sensor_type;location;lat;lon;timestamp;P1;durP1;ratioP1;P2;durP2;ratioP2
27025;SDS011;14565;48.626;8.978;2022-09-09T00:09:42;1.50;;;0.70;;
27025;SDS011;14565;48.626;8.978;2022-09-09T00:14:57;5.88;;;0.70;;
27025;SDS011;14565;48.626;8.978;2022-09-09T00:25:37;5.65;;;1.10;;
27025;SDS011;14565;48.626;8.978;2022-09-09T00:28:15;4.63;;;0.77;;
27025;SDS011;14565;48.626;8.978;2022-09-09T00:30:48;2.35;;;0.80;;
27025;SDS011;14565;48.626;8.978;2022-09-09T00:33:15;4.93;;;0.80;;
27025;SDS011;14565;48.626;8.978;2022-09-09T00:38:36;6.25;;;0.85;;
27025;SDS011;14565;48.626;8.978;2022-09-09T00:43:39;3.65;;;0.80;;
27025;SDS011;14565;48.626;8.978;2022-09-09T00:54:15;3.35;;;0.73;;
27025;SDS011;14565;48.626;8.978;2022-09-09T01:02:11;3.83;;;0.85;;
27025;SDS011;14565;48.626;8.978;2022-09-09T01:04:43;4.43;;;0.98;;
27025;SDS011;14565;48.626;8.978;2022-09-09T01:07:18;3.42;;;0.70;;
27025;SDS011;14565;48.626;8.978;2022-09-09T01:12:23;3.97;;;0.90;;
27025;SDS011;14565;48.626;8.978;2022-09-09T01:14:50;3.42;;;0.80;;
27025;SDS011;14565;48.626;8.978;2022-09-09T01:17:26;3.35;;;0.77;;
27025;SDS011;14565;48.626;8.978;2022-09-09T01:27:42;3.55;;;0.60;;
27025;SDS011;14565;48.626;8.978;2022-09-09T01:30:10;7.10;;;1.42;;
27025;SDS011;14565;48.626;8.978;2022-09-09T01:32:42;5.50;;;0.98;;
27025;SDS011;14565;48.626;8.978;2022-09-09T01:37:55;4.32;;;1.25;;
27025;SDS011;14565;48.626;8.978;2022-09-09T01:40:20;4.38;;;1.38;;
27025;SDS011;14565;48.626;8.978;2022-09-09T01:42:46;2.85;;;0.80;;
27025;SDS011;14565;48.626;8.978;2022-09-09T01:45:12;3.00;;;0.77;;
27025;SDS011;14565;48.626;8.978;2022-09-09T01:47:38;3.38;;;1.10;;
27025;SDS011;14565;48.626;8.978;2022-09-09T01:50:04;3.97;;;0.93;;
27025;SDS011;14565;48.626;8.978;2022-09-09T01:52:31;3.97;;;0.80;;
27025;SDS011;14565;48.626;8.978;2022-09-09T01:55:01;6.03;;;1.20;;
27025;SDS011;14565;48.626;8.978;2022-09-09T01:59:59;4.80;;;0.93;;
27025;SDS011;14565;48.626;8.978;2022-09-09T02:02:33;5.22;;;0.90;;
27025;SDS011;14565;48.626;8.978;2022-09-09T02:07:47;3.53;;;0.90;;
27025;SDS011;14565;48.626;8.978;2022-09-09T02:10:22;3.60;;;0.93;;
27025;SDS011;14565;48.626;8.978;2022-09-09T02:12:55;2.80;;;0.80;;
27025;SDS011;14565;48.626;8.978;2022-09-09T02:18:30;3.78;;;0.90;;
27025;SDS011;14565;48.626;8.978;2022-09-09T02:21:01;1.75;;;0.77;;
27025;SDS011;14565;48.626;8.978;2022-09-09T02:23:28;5.72;;;1.13;;
27025;SDS011;14565;48.626;8.978;2022-09-09T02:25:54;6.15;;;1.00;;
27025;SDS011;14565;48.626;8.978;2022-09-09T02:28:23;5.82;;;0.80;;
27025;SDS011;14565;48.626;8.978;2022-09-09T02:30:52;3.97;;;0.85;;
27025;SDS011;14565;48.626;8.978;2022-09-09T02:33:20;2.43;;;1.00;;
27025;SDS011;14565;48.626;8.978;2022-09-09T02:35:51;5.18;;;0.90;;
27025;SDS011;14565;48.626;8.978;2022-09-09T02:38:19;2.83;;;0.93;;
27025;SDS011;14565;48.626;8.978;2022-09-09T02:40:48;3.33;;;0.90;;
27025;SDS011;14565;48.626;8.978;2022-09-09T02:43:14;4.63;;;0.90;;
27025;SDS011;14565;48.626;8.978;2022-09-09T02:45:42;3.83;;;0.95;;
27025;SDS011;14565;48.626;8.978;2022-09-09T02:51:15;5.15;;;0.88;;
27025;SDS011;14565;48.626;8.978;2022-09-09T02:56:48;4.05;;;0.77;;
27025;SDS011;14565;48.626;8.978;2022-09-09T02:59:19;2.60;;;1.08;;
27025;SDS011;14565;48.626;8.978;2022-09-09T03:01:45;3.50;;;1.30;;
27025;SDS011;14565;48.626;8.978;2022-09-09T03:04:12;3.85;;;0.90;;
27025;SDS011;14565;48.626;8.978;2022-09-09T03:06:38;1.48;;;0.77;;
27025;SDS011;14565;48.626;8.978;2022-09-09T03:09:03;4.53;;;1.00;;
27025;SDS011;14565;48.626;8.978;2022-09-09T03:11:29;3.03;;;0.90;;
27025;SDS011;14565;48.626;8.978;2022-09-09T03:13:55;3.55;;;1.40;;
27025;SDS011;14565;48.626;8.978;2022-09-09T03:16:23;3.85;;;0.90;;
27025;SDS011;14565;48.626;8.978;2022-09-09T03:18:49;2.45;;;0.90;;
27025;SDS011;14565;48.626;8.978;2022-09-09T03:21:15;6.10;;;1.13;;
27025;SDS011;14565;48.626;8.978;2022-09-09T03:23:41;8.10;;;1.10;;
27025;SDS011;14565;48.626;8.978;2022-09-09T03:26:07;4.07;;;1.08;;
27025;SDS011;14565;48.626;8.978;2022-09-09T03:28:32;3.80;;;0.80;;
27025;SDS011;14565;48.626;8.978;2022-09-09T03:31:02;6.35;;;0.85;;
27025;SDS011;14565;48.626;8.978;2022-09-09T03:33:29;5.75;;;1.17;;
27025;SDS011;14565;48.626;8.978;2022-09-09T03:35:56;2.55;;;0.85;;
27025;SDS011;14565;48.626;8.978;2022-09-09T03:38:22;3.17;;;0.90;;
27025;SDS011;14565;48.626;8.978;2022-09-09T03:40:49;3.17;;;1.00;;
27025;SDS011;14565;48.626;8.978;2022-09-09T03:43:23;4.78;;;1.67;;
27025;SDS011;14565;48.626;8.978;2022-09-09T03:45:50;3.37;;;0.90;;
27025;SDS011;14565;48.626;8.978;2022-09-09T03:48:16;4.85;;;0.90;;
27025;SDS011;14565;48.626;8.978;2022-09-09T03:50:50;3.00;;;1.10;;
27025;SDS011;14565;48.626;8.978;2022-09-09T03:53:18;4.15;;;1.10;;
27025;SDS011;14565;48.626;8.978;2022-09-09T03:55:46;3.65;;;1.20;;
27025;SDS011;14565;48.626;8.978;2022-09-09T03:58:13;5.38;;;0.98;;
27025;SDS011;14565;48.626;8.978;2022-09-09T04:00:40;9.63;;;1.60;;
27025;SDS011;14565;48.626;8.978;2022-09-09T04:03:10;7.07;;;1.42;;
27025;SDS011;14565;48.626;8.978;2022-09-09T04:05:37;6.53;;;1.10;;
27025;SDS011;14565;48.626;8.978;2022-09-09T04:08:06;7.22;;;1.20;;
27025;SDS011;14565;48.626;8.978;2022-09-09T04:10:31;3.55;;;0.82;;
27025;SDS011;14565;48.626;8.978;2022-09-09T04:12:58;2.85;;;0.88;;
27025;SDS011;14565;48.626;8.978;2022-09-09T04:15:24;6.78;;;1.10;;
27025;SDS011;14565;48.626;8.978;2022-09-09T04:17:49;2.95;;;1.00;;
27025;SDS011;14565;48.626;8.978;2022-09-09T04:20:16;3.60;;;1.20;;
27025;SDS011;14565;48.626;8.978;2022-09-09T04:22:41;3.38;;;1.00;;
27025;SDS011;14565;48.626;8.978;2022-09-09T04:25:07;4.30;;;1.50;;
27025;SDS011;14565;48.626;8.978;2022-09-09T04:27:33;3.67;;;0.80;;
27025;SDS011;14565;48.626;8.978;2022-09-09T04:29:58;3.15;;;1.10;;
27025;SDS011;14565;48.626;8.978;2022-09-09T04:32:24;2.42;;;0.90;;
27025;SDS011;14565;48.626;8.978;2022-09-09T04:34:53;5.07;;;1.10;;
27025;SDS011;14565;48.626;8.978;2022-09-09T04:37:19;2.45;;;1.00;;
27025;SDS011;14565;48.626;8.978;2022-09-09T04:39:44;4.25;;;1.00;;
27025;SDS011;14565;48.626;8.978;2022-09-09T04:42:10;5.03;;;0.88;;
27025;SDS011;14565;48.626;8.978;2022-09-09T04:44:36;3.40;;;0.90;;
27025;SDS011;14565;48.626;8.978;2022-09-09T04:47:02;2.05;;;0.80;;
27025;SDS011;14565;48.626;8.978;2022-09-09T04:49:27;2.97;;;0.90;;
27025;SDS011;14565;48.626;8.978;2022-09-09T04:51:53;5.22;;;0.95;;
27025;SDS011;14565;48.626;8.978;2022-09-09T04:54:19;6.63;;;1.38;;
27025;SDS011;14565;48.626;8.978;2022-09-09T04:56:44;4.30;;;0.80;;
27025;SDS011;14565;48.626;8.978;2022-09-09T04:59:10;3.22;;;1.00;;
27025;SDS011;14565;48.626;8.978;2022-09-09T05:01:35;3.40;;;1.10;;
27025;SDS011;14565;48.626;8.978;2022-09-09T05:04:02;1.60;;;0.77;;
27025;SDS011;14565;48.626;8.978;2022-09-09T05:06:28;5.03;;;1.55;;
27025;SDS011;14565;48.626;8.978;2022-09-09T05:08:56;3.92;;;1.17;;
27025;SDS011;14565;48.626;8.978;2022-09-09T05:11:24;5.90;;;1.05;;
27025;SDS011;14565;48.626;8.978;2022-09-09T05:13:51;3.22;;;0.90;;
27025;SDS011;14565;48.626;8.978;2022-09-09T05:16:18;3.15;;;0.93;;
27025;SDS011;14565;48.626;8.978;2022-09-09T05:18:44;4.10;;;0.98;;
27025;SDS011;14565;48.626;8.978;2022-09-09T05:21:15;3.22;;;0.90;;
27025;SDS011;14565;48.626;8.978;2022-09-09T05:23:41;1.98;;;0.70;;
27025;SDS011;14565;48.626;8.978;2022-09-09T05:26:09;3.88;;;1.00;;
27025;SDS011;14565;48.626;8.978;2022-09-09T05:28:38;2.22;;;0.80;;
27025;SDS011;14565;48.626;8.978;2022-09-09T05:31:05;4.85;;;1.05;;
27025;SDS011;14565;48.626;8.978;2022-09-09T05:33:36;4.65;;;0.85;;
27025;SDS011;14565;48.626;8.978;2022-09-09T05:36:05;3.42;;;0.93;;
27025;SDS011;14565;48.626;8.978;2022-09-09T05:40:59;2.92;;;0.90;;
27025;SDS011;14565;48.626;8.978;2022-09-09T05:43:26;2.25;;;0.80;;
27025;SDS011;14565;48.626;8.978;2022-09-09T05:46:05;3.30;;;0.88;;
27025;SDS011;14565;48.626;8.978;2022-09-09T05:48:36;3.28;;;0.88;;
27025;SDS011;14565;48.626;8.978;2022-09-09T05:51:03;4.40;;;1.05;;
27025;SDS011;14565;48.626;8.978;2022-09-09T05:53:29;3.58;;;0.80;;
27025;SDS011;14565;48.626;8.978;2022-09-09T05:56:03;4.38;;;1.08;;
27025;SDS011;14565;48.626;8.978;2022-09-09T05:58:30;3.30;;;0.88;;
27025;SDS011;14565;48.626;8.978;2022-09-09T06:01:03;2.28;;;1.00;;
27025;SDS011;14565;48.626;8.978;2022-09-09T06:03:36;5.63;;;1.05;;
27025;SDS011;14565;48.626;8.978;2022-09-09T06:06:04;4.63;;;0.90;;
27025;SDS011;14565;48.626;8.978;2022-09-09T06:13:30;1.60;;;0.80;;
27025;SDS011;14565;48.626;8.978;2022-09-09T06:15:56;3.38;;;0.80;;
27025;SDS011;14565;48.626;8.978;2022-09-09T06:18:23;5.10;;;0.95;;
27025;SDS011;14565;48.626;8.978;2022-09-09T06:23:31;1.80;;;0.88;;
27025;SDS011;14565;48.626;8.978;2022-09-09T06:26:05;2.67;;;0.90;;
27025;SDS011;14565;48.626;8.978;2022-09-09T06:28:34;4.85;;;0.90;;
27025;SDS011;14565;48.626;8.978;2022-09-09T06:31:01;2.50;;;0.85;;
27025;SDS011;14565;48.626;8.978;2022-09-09T06:33:32;5.88;;;1.15;;
27025;SDS011;14565;48.626;8.978;2022-09-09T06:38:26;1.80;;;0.80;;
27025;SDS011;14565;48.626;8.978;2022-09-09T06:40:56;3.03;;;0.90;;
27025;SDS011;14565;48.626;8.978;2022-09-09T06:43:27;7.78;;;0.90;;
27025;SDS011;14565;48.626;8.978;2022-09-09T06:45:54;2.60;;;0.70;;
27025;SDS011;14565;48.626;8.978;2022-09-09T06:48:19;6.45;;;0.82;;
27025;SDS011;14565;48.626;8.978;2022-09-09T06:50:45;4.30;;;0.90;;
27025;SDS011;14565;48.626;8.978;2022-09-09T06:53:11;3.70;;;0.98;;
27025;SDS011;14565;48.626;8.978;2022-09-09T06:55:37;2.72;;;0.77;;
27025;SDS011;14565;48.626;8.978;2022-09-09T06:58:07;4.68;;;0.80;;
27025;SDS011;14565;48.626;8.978;2022-09-09T07:00:33;3.58;;;0.77;;
27025;SDS011;14565;48.626;8.978;2022-09-09T07:02:59;3.75;;;0.98;;
27025;SDS011;14565;48.626;8.978;2022-09-09T07:05:24;2.75;;;0.95;;
27025;SDS011;14565;48.626;8.978;2022-09-09T07:07:51;4.68;;;1.02;;
27025;SDS011;14565;48.626;8.978;2022-09-09T07:10:17;5.78;;;1.00;;
27025;SDS011;14565;48.626;8.978;2022-09-09T07:12:43;3.30;;;0.80;;
27025;SDS011;14565;48.626;8.978;2022-09-09T07:15:09;8.70;;;1.20;;
27025;SDS011;14565;48.626;8.978;2022-09-09T07:17:35;3.80;;;0.90;;
27025;SDS011;14565;48.626;8.978;2022-09-09T07:20:01;3.38;;;0.93;;
27025;SDS011;14565;48.626;8.978;2022-09-09T07:22:29;6.03;;;1.05;;
27025;SDS011;14565;48.626;8.978;2022-09-09T07:24:54;2.35;;;0.60;;
27025;SDS011;14565;48.626;8.978;2022-09-09T07:27:20;2.33;;;0.80;;
27025;SDS011;14565;48.626;8.978;2022-09-09T07:29:46;6.18;;;0.90;;
27025;SDS011;14565;48.626;8.978;2022-09-09T07:32:11;2.92;;;1.10;;
27025;SDS011;14565;48.626;8.978;2022-09-09T07:34:37;3.13;;;1.00;;
27025;SDS011;14565;48.626;8.978;2022-09-09T07:37:03;5.07;;;1.13;;
27025;SDS011;14565;48.626;8.978;2022-09-09T07:39:28;9.38;;;1.10;;
27025;SDS011;14565;48.626;8.978;2022-09-09T07:41:54;4.35;;;1.10;;
27025;SDS011;14565;48.626;8.978;2022-09-09T07:44:21;3.92;;;0.90;;
27025;SDS011;14565;48.626;8.978;2022-09-09T07:49:13;5.80;;;1.20;;
27025;SDS011;14565;48.626;8.978;2022-09-09T07:51:41;8.55;;;1.05;;
27025;SDS011;14565;48.626;8.978;2022-09-09T07:54:10;2.97;;;0.80;;
27025;SDS011;14565;48.626;8.978;2022-09-09T07:56:37;3.63;;;0.80;;
27025;SDS011;14565;48.626;8.978;2022-09-09T07:59:04;2.03;;;0.53;;
27025;SDS011;14565;48.626;8.978;2022-09-09T08:04:00;5.25;;;0.90;;
27025;SDS011;14565;48.626;8.978;2022-09-09T08:06:27;5.60;;;1.00;;
27025;SDS011;14565;48.626;8.978;2022-09-09T08:08:55;5.03;;;0.88;;
27025;SDS011;14565;48.626;8.978;2022-09-09T08:11:22;3.65;;;0.88;;
27025;SDS011;14565;48.626;8.978;2022-09-09T08:13:50;6.53;;;0.88;;
27025;SDS011;14565;48.626;8.978;2022-09-09T08:16:20;4.00;;;1.25;;
27025;SDS011;14565;48.626;8.978;2022-09-09T08:18:51;5.45;;;0.90;;
27025;SDS011;14565;48.626;8.978;2022-09-09T08:21:28;7.78;;;1.25;;
27025;SDS011;14565;48.626;8.978;2022-09-09T08:23:57;4.00;;;0.90;;
27025;SDS011;14565;48.626;8.978;2022-09-09T08:26:27;5.90;;;1.10;;
27025;SDS011;14565;48.626;8.978;2022-09-09T08:28:55;4.53;;;1.13;;
27025;SDS011;14565;48.626;8.978;2022-09-09T08:33:59;4.45;;;0.90;;
27025;SDS011;14565;48.626;8.978;2022-09-09T08:36:28;4.97;;;0.90;;
27025;SDS011;14565;48.626;8.978;2022-09-09T08:38:55;5.05;;;1.00;;
27025;SDS011;14565;48.626;8.978;2022-09-09T08:54:56;4.63;;;1.00;;
27025;SDS011;14565;48.626;8.978;2022-09-09T08:57:30;4.15;;;0.85;;
27025;SDS011;14565;48.626;8.978;2022-09-09T08:59:57;2.75;;;1.08;;
27025;SDS011;14565;48.626;8.978;2022-09-09T09:02:25;5.65;;;1.15;;
27025;SDS011;14565;48.626;8.978;2022-09-09T09:05:11;11.45;;;2.30;;
27025;SDS011;14565;48.626;8.978;2022-09-09T09:11:06;4.10;;;1.05;;
27025;SDS011;14565;48.626;8.978;2022-09-09T09:16:10;6.82;;;1.17;;
27025;SDS011;14565;48.626;8.978;2022-09-09T09:18:57;7.65;;;1.50;;
27025;SDS011;14565;48.626;8.978;2022-09-09T09:21:42;4.53;;;1.50;;
27025;SDS011;14565;48.626;8.978;2022-09-09T09:26:43;5.60;;;1.60;;
27025;SDS011;14565;48.626;8.978;2022-09-09T09:29:13;4.53;;;1.33;;
27025;SDS011;14565;48.626;8.978;2022-09-09T09:31:45;6.15;;;1.15;;
27025;SDS011;14565;48.626;8.978;2022-09-09T09:34:20;5.95;;;1.27;;
27025;SDS011;14565;48.626;8.978;2022-09-09T09:36:52;5.45;;;1.05;;
27025;SDS011;14565;48.626;8.978;2022-09-09T09:39:26;3.47;;;1.40;;
27025;SDS011;14565;48.626;8.978;2022-09-09T09:41:54;5.85;;;0.90;;
27025;SDS011;14565;48.626;8.978;2022-09-09T09:44:30;2.50;;;0.80;;
27025;SDS011;14565;48.626;8.978;2022-09-09T09:47:16;4.40;;;0.88;;
27025;SDS011;14565;48.626;8.978;2022-09-09T09:49:56;4.20;;;1.05;;
27025;SDS011;14565;48.626;8.978;2022-09-09T09:52:25;5.72;;;1.25;;
27025;SDS011;14565;48.626;8.978;2022-09-09T09:54:53;2.75;;;0.80;;
27025;SDS011;14565;48.626;8.978;2022-09-09T09:57:27;4.05;;;0.90;;
27025;SDS011;14565;48.626;8.978;2022-09-09T10:02:37;5.30;;;0.80;;
27025;SDS011;14565;48.626;8.978;2022-09-09T10:07:43;3.22;;;0.90;;
27025;SDS011;14565;48.626;8.978;2022-09-09T10:10:12;4.97;;;0.90;;
27025;SDS011;14565;48.626;8.978;2022-09-09T10:32:49;5.10;;;0.90;;
27025;SDS011;14565;48.626;8.978;2022-09-09T10:38:52;5.05;;;1.13;;
27025;SDS011;14565;48.626;8.978;2022-09-09T10:51:53;4.63;;;0.80;;
27025;SDS011;14565;48.626;8.978;2022-09-09T10:56:57;4.30;;;0.82;;
27025;SDS011;14565;48.626;8.978;2022-09-09T10:59:36;3.30;;;0.80;;
27025;SDS011;14565;48.626;8.978;2022-09-09T11:07:26;4.20;;;0.90;;
27025;SDS011;14565;48.626;8.978;2022-09-09T11:10:00;3.38;;;0.60;;
27025;SDS011;14565;48.626;8.978;2022-09-09T11:12:31;2.95;;;0.60;;
27025;SDS011;14565;48.626;8.978;2022-09-09T11:15:20;2.45;;;0.52;;
27025;SDS011;14565;48.626;8.978;2022-09-09T11:17:52;4.90;;;0.80;;
27025;SDS011;14565;48.626;8.978;2022-09-09T11:20:21;1.88;;;0.60;;
27025;SDS011;14565;48.626;8.978;2022-09-09T11:23:01;2.58;;;0.50;;
27025;SDS011;14565;48.626;8.978;2022-09-09T11:25:38;1.88;;;0.47;;
27025;SDS011;14565;48.626;8.978;2022-09-09T11:28:23;1.45;;;0.50;;
27025;SDS011;14565;48.626;8.978;2022-09-09T11:42:05;1.33;;;0.50;;
27025;SDS011;14565;48.626;8.978;2022-09-09T11:44:51;1.85;;;0.63;;
27025;SDS011;14565;48.626;8.978;2022-09-09T11:50:40;3.17;;;0.50;;
27025;SDS011;14565;48.626;8.978;2022-09-09T11:52:45;1.50;;;0.40;;
27025;SDS011;14565;48.626;8.978;2022-09-09T11:55:26;1.20;;;0.50;;
27025;SDS011;14565;48.626;8.978;2022-09-09T12:00:43;2.28;;;0.40;;
27025;SDS011;14565;48.626;8.978;2022-09-09T12:03:31;0.73;;;0.32;;
27025;SDS011;14565;48.626;8.978;2022-09-09T12:08:53;1.33;;;0.30;;
27025;SDS011;14565;48.626;8.978;2022-09-09T12:11:27;1.70;;;0.40;;
27025;SDS011;14565;48.626;8.978;2022-09-09T12:13:56;1.35;;;0.50;;
27025;SDS011;14565;48.626;8.978;2022-09-09T12:16:34;1.95;;;0.77;;
27025;SDS011;14565;48.626;8.978;2022-09-09T12:34:36;6.78;;;0.60;;
27025;SDS011;14565;48.626;8.978;2022-09-09T12:39:55;2.92;;;0.50;;
27025;SDS011;14565;48.626;8.978;2022-09-09T12:42:24;1.88;;;0.50;;
27025;SDS011;14565;48.626;8.978;2022-09-09T12:44:55;1.65;;;0.57;;
27025;SDS011;14565;48.626;8.978;2022-09-09T12:47:25;5.68;;;0.60;;
27025;SDS011;14565;48.626;8.978;2022-09-09T12:49:58;5.03;;;0.63;;
27025;SDS011;14565;48.626;8.978;2022-09-09T12:52:26;3.53;;;0.60;;
27025;SDS011;14565;48.626;8.978;2022-09-09T12:54:58;2.25;;;0.40;;
27025;SDS011;14565;48.626;8.978;2022-09-09T12:57:26;5.53;;;0.50;;
27025;SDS011;14565;48.626;8.978;2022-09-09T13:00:12;4.07;;;0.70;;
27025;SDS011;14565;48.626;8.978;2022-09-09T13:05:14;2.60;;;0.57;;
27025;SDS011;14565;48.626;8.978;2022-09-09T13:07:45;4.22;;;0.60;;
27025;SDS011;14565;48.626;8.978;2022-09-09T13:10:12;3.25;;;0.52;;
27025;SDS011;14565;48.626;8.978;2022-09-09T13:12:39;3.47;;;0.50;;
27025;SDS011;14565;48.626;8.978;2022-09-09T13:15:10;3.03;;;0.52;;
27025;SDS011;14565;48.626;8.978;2022-09-09T13:17:56;2.05;;;0.50;;
27025;SDS011;14565;48.626;8.978;2022-09-09T13:20:25;3.50;;;0.52;;
27025;SDS011;14565;48.626;8.978;2022-09-09T13:22:52;2.95;;;0.47;;
27025;SDS011;14565;48.626;8.978;2022-09-09T13:30:20;2.42;;;0.50;;
27025;SDS011;14565;48.626;8.978;2022-09-09T13:32:47;2.55;;;0.70;;
27025;SDS011;14565;48.626;8.978;2022-09-09T13:35:26;2.13;;;0.57;;
27025;SDS011;14565;48.626;8.978;2022-09-09T13:37:52;2.75;;;0.50;;
27025;SDS011;14565;48.626;8.978;2022-09-09T13:40:19;3.80;;;0.70;;
27025;SDS011;14565;48.626;8.978;2022-09-09T13:42:46;4.88;;;0.82;;
27025;SDS011;14565;48.626;8.978;2022-09-09T13:45:19;1.38;;;0.50;;
27025;SDS011;14565;48.626;8.978;2022-09-09T13:47:47;2.33;;;0.50;;
27025;SDS011;14565;48.626;8.978;2022-09-09T13:55:23;1.77;;;0.52;;
27025;SDS011;14565;48.626;8.978;2022-09-09T13:57:50;2.70;;;0.60;;
27025;SDS011;14565;48.626;8.978;2022-09-09T14:00:18;2.05;;;0.50;;
27025;SDS011;14565;48.626;8.978;2022-09-09T14:02:43;2.38;;;0.43;;
27025;SDS011;14565;48.626;8.978;2022-09-09T14:05:09;2.45;;;0.60;;
27025;SDS011;14565;48.626;8.978;2022-09-09T14:07:36;1.55;;;0.43;;
27025;SDS011;14565;48.626;8.978;2022-09-09T14:10:05;5.72;;;0.52;;
27025;SDS011;14565;48.626;8.978;2022-09-09T14:12:31;1.20;;;0.40;;
27025;SDS011;14565;48.626;8.978;2022-09-09T14:14:57;2.53;;;0.40;;
27025;SDS011;14565;48.626;8.978;2022-09-09T14:17:24;7.25;;;0.80;;
27025;SDS011;14565;48.626;8.978;2022-09-09T14:19:54;2.50;;;0.40;;
27025;SDS011;14565;48.626;8.978;2022-09-09T14:22:20;3.90;;;0.43;;
27025;SDS011;14565;48.626;8.978;2022-09-09T14:24:45;4.50;;;0.50;;
27025;SDS011;14565;48.626;8.978;2022-09-09T14:27:11;2.05;;;0.50;;
27025;SDS011;14565;48.626;8.978;2022-09-09T14:29:37;6.63;;;0.75;;
27025;SDS011;14565;48.626;8.978;2022-09-09T14:32:03;3.42;;;0.50;;
27025;SDS011;14565;48.626;8.978;2022-09-09T14:34:29;3.47;;;0.40;;
27025;SDS011;14565;48.626;8.978;2022-09-09T14:36:55;1.48;;;0.47;;
27025;SDS011;14565;48.626;8.978;2022-09-09T14:39:20;2.17;;;0.50;;
27025;SDS011;14565;48.626;8.978;2022-09-09T14:41:46;1.85;;;0.47;;
27025;SDS011;14565;48.626;8.978;2022-09-09T14:44:12;5.28;;;0.60;;
27025;SDS011;14565;48.626;8.978;2022-09-09T14:46:37;3.63;;;0.50;;
27025;SDS011;14565;48.626;8.978;2022-09-09T14:49:03;2.60;;;0.45;;
27025;SDS011;14565;48.626;8.978;2022-09-09T14:51:29;2.38;;;0.40;;
27025;SDS011;14565;48.626;8.978;2022-09-09T14:53:56;1.95;;;0.50;;
27025;SDS011;14565;48.626;8.978;2022-09-09T14:56:27;3.90;;;0.60;;
27025;SDS011;14565;48.626;8.978;2022-09-09T14:58:56;7.60;;;0.70;;
27025;SDS011;14565;48.626;8.978;2022-09-09T15:01:23;4.10;;;0.60;;
27025;SDS011;14565;48.626;8.978;2022-09-09T15:04:01;2.15;;;0.50;;
27025;SDS011;14565;48.626;8.978;2022-09-09T15:06:29;3.50;;;0.70;;
27025;SDS011;14565;48.626;8.978;2022-09-09T15:08:58;4.90;;;0.80;;
27025;SDS011;14565;48.626;8.978;2022-09-09T15:11:25;3.15;;;0.85;;
27025;SDS011;14565;48.626;8.978;2022-09-09T15:13:53;2.35;;;0.60;;
27025;SDS011;14565;48.626;8.978;2022-09-09T15:16:19;1.38;;;0.70;;
27025;SDS011;14565;48.626;8.978;2022-09-09T15:18:46;2.17;;;0.50;;
27025;SDS011;14565;48.626;8.978;2022-09-09T15:21:16;3.40;;;0.60;;
27025;SDS011;14565;48.626;8.978;2022-09-09T15:23:46;6.07;;;0.60;;
27025;SDS011;14565;48.626;8.978;2022-09-09T15:26:15;1.60;;;0.65;;
27025;SDS011;14565;48.626;8.978;2022-09-09T15:28:42;5.28;;;0.82;;
27025;SDS011;14565;48.626;8.978;2022-09-09T15:31:12;1.55;;;0.40;;
27025;SDS011;14565;48.626;8.978;2022-09-09T15:33:39;2.22;;;0.45;;
27025;SDS011;14565;48.626;8.978;2022-09-09T15:36:24;2.63;;;0.55;;
27025;SDS011;14565;48.626;8.978;2022-09-09T15:38:51;3.85;;;0.50;;
27025;SDS011;14565;48.626;8.978;2022-09-09T15:41:18;3.55;;;0.55;;
27025;SDS011;14565;48.626;8.978;2022-09-09T15:46:22;3.60;;;0.40;;
27025;SDS011;14565;48.626;8.978;2022-09-09T15:48:52;5.10;;;0.60;;
27025;SDS011;14565;48.626;8.978;2022-09-09T15:51:22;5.80;;;0.55;;
27025;SDS011;14565;48.626;8.978;2022-09-09T15:53:56;4.50;;;0.60;;
27025;SDS011;14565;48.626;8.978;2022-09-09T15:56:23;3.58;;;1.30;;
27025;SDS011;14565;48.626;8.978;2022-09-09T15:58:50;2.23;;;0.67;;
27025;SDS011;14565;48.626;8.978;2022-09-09T16:01:17;4.10;;;1.10;;
27025;SDS011;14565;48.626;8.978;2022-09-09T16:03:44;4.60;;;2.40;;
27025;SDS011;14565;48.626;8.978;2022-09-09T16:06:12;11.13;;;6.30;;
27025;SDS011;14565;48.626;8.978;2022-09-09T16:08:39;7.88;;;3.70;;
27025;SDS011;14565;48.626;8.978;2022-09-09T16:11:15;8.50;;;3.55;;
27025;SDS011;14565;48.626;8.978;2022-09-09T16:13:43;16.15;;;8.57;;
27025;SDS011;14565;48.626;8.978;2022-09-09T16:16:10;9.77;;;4.90;;
27025;SDS011;14565;48.626;8.978;2022-09-09T16:21:08;10.23;;;5.07;;
27025;SDS011;14565;48.626;8.978;2022-09-09T16:23:49;9.82;;;5.38;;
27025;SDS011;14565;48.626;8.978;2022-09-09T16:26:16;1.75;;;0.93;;
27025;SDS011;14565;48.626;8.978;2022-09-09T16:28:43;3.03;;;1.60;;
27025;SDS011;14565;48.626;8.978;2022-09-09T16:36:07;1.52;;;0.50;;
27025;SDS011;14565;48.626;8.978;2022-09-09T16:38:35;1.17;;;0.30;;
27025;SDS011;14565;48.626;8.978;2022-09-09T16:41:01;0.95;;;0.30;;
27025;SDS011;14565;48.626;8.978;2022-09-09T16:43:30;0.73;;;0.45;;
27025;SDS011;14565;48.626;8.978;2022-09-09T16:45:55;1.95;;;0.52;;
27025;SDS011;14565;48.626;8.978;2022-09-09T16:48:21;0.30;;;0.30;;
27025;SDS011;14565;48.626;8.978;2022-09-09T16:50:47;1.65;;;0.40;;
27025;SDS011;14565;48.626;8.978;2022-09-09T16:53:13;6.50;;;0.50;;
27025;SDS011;14565;48.626;8.978;2022-09-09T16:55:40;2.03;;;0.45;;
27025;SDS011;14565;48.626;8.978;2022-09-09T16:58:15;2.22;;;0.47;;
27025;SDS011;14565;48.626;8.978;2022-09-09T17:00:40;3.05;;;0.52;;
27025;SDS011;14565;48.626;8.978;2022-09-09T17:03:10;3.58;;;0.80;;
27025;SDS011;14565;48.626;8.978;2022-09-09T17:05:41;4.15;;;1.13;;
27025;SDS011;14565;48.626;8.978;2022-09-09T17:08:06;5.65;;;2.22;;
27025;SDS011;14565;48.626;8.978;2022-09-09T17:10:32;2.47;;;1.08;;
27025;SDS011;14565;48.626;8.978;2022-09-09T17:12:58;3.05;;;0.70;;
27025;SDS011;14565;48.626;8.978;2022-09-09T17:15:24;1.75;;;0.40;;
27025;SDS011;14565;48.626;8.978;2022-09-09T17:17:49;2.22;;;0.35;;
27025;SDS011;14565;48.626;8.978;2022-09-09T17:20:18;2.58;;;0.50;;
27025;SDS011;14565;48.626;8.978;2022-09-09T17:22:44;1.63;;;0.60;;
27025;SDS011;14565;48.626;8.978;2022-09-09T17:25:10;1.60;;;0.40;;
27025;SDS011;14565;48.626;8.978;2022-09-09T17:27:36;2.78;;;0.60;;
27025;SDS011;14565;48.626;8.978;2022-09-09T17:30:02;1.88;;;0.75;;
27025;SDS011;14565;48.626;8.978;2022-09-09T17:32:28;1.33;;;0.50;;
27025;SDS011;14565;48.626;8.978;2022-09-09T17:34:55;1.25;;;0.70;;
27025;SDS011;14565;48.626;8.978;2022-09-09T17:37:21;0.98;;;0.43;;
27025;SDS011;14565;48.626;8.978;2022-09-09T17:39:46;1.65;;;0.55;;
27025;SDS011;14565;48.626;8.978;2022-09-09T17:42:12;1.38;;;0.50;;
27025;SDS011;14565;48.626;8.978;2022-09-09T17:44:39;1.63;;;0.55;;
27025;SDS011;14565;48.626;8.978;2022-09-09T17:47:06;1.90;;;0.52;;
27025;SDS011;14565;48.626;8.978;2022-09-09T17:49:32;2.05;;;0.80;;
27025;SDS011;14565;48.626;8.978;2022-09-09T17:51:58;1.55;;;0.70;;
27025;SDS011;14565;48.626;8.978;2022-09-09T17:54:24;2.42;;;0.70;;
27025;SDS011;14565;48.626;8.978;2022-09-09T17:56:49;3.88;;;0.75;;
27025;SDS011;14565;48.626;8.978;2022-09-09T17:59:16;3.10;;;1.05;;
27025;SDS011;14565;48.626;8.978;2022-09-09T18:01:44;4.95;;;1.08;;
27025;SDS011;14565;48.626;8.978;2022-09-09T18:04:11;4.25;;;0.80;;
27025;SDS011;14565;48.626;8.978;2022-09-09T18:06:40;1.88;;;0.63;;
27025;SDS011;14565;48.626;8.978;2022-09-09T18:09:12;3.83;;;0.50;;
27025;SDS011;14565;48.626;8.978;2022-09-09T18:11:43;1.70;;;0.60;;
27025;SDS011;14565;48.626;8.978;2022-09-09T18:14:12;3.42;;;0.52;;
27025;SDS011;14565;48.626;8.978;2022-09-09T18:16:42;3.58;;;0.60;;
27025;SDS011;14565;48.626;8.978;2022-09-09T18:19:09;2.08;;;0.40;;
27025;SDS011;14565;48.626;8.978;2022-09-09T18:21:37;3.42;;;0.70;;
27025;SDS011;14565;48.626;8.978;2022-09-09T18:24:05;2.67;;;0.60;;
27025;SDS011;14565;48.626;8.978;2022-09-09T18:26:33;4.25;;;0.50;;
27025;SDS011;14565;48.626;8.978;2022-09-09T18:29:00;9.97;;;0.60;;
27025;SDS011;14565;48.626;8.978;2022-09-09T18:31:28;2.70;;;0.50;;
27025;SDS011;14565;48.626;8.978;2022-09-09T18:33:55;3.03;;;0.70;;